createdAt,value
2018-02-20T00:00:33.702Z,1.65
2018-02-20T00:01:33.719Z,1.55
2018-02-20T00:02:33.702Z,1.55
2018-02-20T00:03:33.690Z,1.51
2018-02-20T00:04:33.685Z,1.52
2018-02-20T00:05:33.676Z,1.66
2018-02-20T00:06:33.679Z,1.60
2018-02-20T00:07:34.631Z,1.65
2018-02-20T00:08:33.680Z,1.70
2018-02-20T00:09:33.678Z,1.68
2018-02-20T00:10:33.666Z,1.70
2018-02-20T00:11:33.666Z,1.68
2018-02-20T00:12:33.662Z,1.63
2018-02-20T00:13:33.663Z,1.65
2018-02-20T00:14:33.646Z,1.59
2018-02-20T00:15:33.653Z,1.60
2018-02-20T00:16:33.651Z,1.62
2018-02-20T00:17:33.654Z,1.54
2018-02-20T00:18:33.645Z,1.65
2018-02-20T00:19:33.643Z,1.58
2018-02-20T00:20:33.642Z,1.65
2018-02-20T00:21:33.634Z,1.59
2018-02-20T00:22:33.636Z,1.60
2018-02-20T00:23:33.640Z,1.69
2018-02-20T00:24:33.624Z,1.70
2018-02-20T00:25:34.613Z,1.76
2018-02-20T00:26:33.625Z,1.66
2018-02-20T00:27:33.630Z,1.60
2018-02-20T00:28:33.645Z,1.63
2018-02-20T00:29:33.626Z,1.58
2018-02-20T00:30:33.621Z,1.62
2018-02-20T00:31:33.608Z,1.62
2018-02-20T00:32:33.609Z,1.62
2018-02-20T00:33:33.604Z,1.58
2018-02-20T00:34:33.605Z,1.60
2018-02-20T00:35:33.601Z,1.52
2018-02-20T00:36:33.597Z,1.59
2018-02-20T00:37:33.598Z,1.59
2018-02-20T00:38:33.582Z,1.47
2018-02-20T00:39:33.585Z,1.54
2018-02-20T00:40:33.589Z,1.48
2018-02-20T00:41:33.618Z,1.51
2018-02-20T00:42:33.582Z,1.48
2018-02-20T00:43:33.578Z,1.50
2018-02-20T00:44:33.586Z,1.44
2018-02-20T00:45:33.570Z,1.44
2018-02-20T00:46:33.574Z,1.48
2018-02-20T00:47:33.566Z,1.52
2018-02-20T00:48:33.563Z,1.41
2018-02-20T00:49:33.575Z,1.41
2018-02-20T00:50:33.554Z,1.33
2018-02-20T00:51:33.542Z,1.40
2018-02-20T00:52:33.556Z,1.47
2018-02-20T00:53:33.547Z,1.40
2018-02-20T00:54:33.540Z,1.33
2018-02-20T00:55:33.543Z,1.30
2018-02-20T00:56:33.540Z,1.41
2018-02-20T00:57:33.537Z,1.36
2018-02-20T00:58:33.534Z,1.40
2018-02-20T00:59:33.524Z,1.44
2018-02-20T01:00:33.520Z,1.32
2018-02-20T01:01:33.523Z,1.41
2018-02-20T01:02:33.513Z,1.42
2018-02-20T01:03:33.508Z,1.29
2018-02-20T01:04:33.519Z,1.24
2018-02-20T01:05:33.514Z,1.22
2018-02-20T01:06:33.512Z,1.18
2018-02-20T01:07:33.501Z,1.18
2018-02-20T01:08:33.498Z,1.16
2018-02-20T01:09:33.509Z,1.27
2018-02-20T01:10:33.499Z,1.32
2018-02-20T01:11:33.490Z,1.27
2018-02-20T01:12:33.595Z,1.27
2018-02-20T01:13:33.503Z,1.33
2018-02-20T01:14:33.484Z,1.36
2018-02-20T01:15:33.485Z,1.26
2018-02-20T01:16:33.479Z,1.24
2018-02-20T01:17:33.474Z,1.27
2018-02-20T01:18:33.476Z,1.24
2018-02-20T01:19:33.464Z,1.23
2018-02-20T01:20:33.467Z,1.29
2018-02-20T01:21:33.466Z,1.34
2018-02-20T01:22:33.461Z,1.23
2018-02-20T01:23:33.473Z,1.12
2018-02-20T01:24:33.473Z,1.27
2018-02-20T01:25:34.118Z,1.24
2018-02-20T01:26:33.456Z,1.27
2018-02-20T01:27:33.447Z,1.36
2018-02-20T01:28:33.443Z,1.30
2018-02-20T01:29:33.437Z,1.33
2018-02-20T01:30:33.439Z,1.24
2018-02-20T01:31:33.428Z,1.29
2018-02-20T01:32:33.423Z,1.12
2018-02-20T01:33:33.428Z,1.20
2018-02-20T01:34:33.420Z,1.16
2018-02-20T01:35:33.427Z,1.24
2018-02-20T01:36:33.435Z,1.22
2018-02-20T01:37:33.416Z,1.12
2018-02-20T01:38:33.414Z,1.20
2018-02-20T01:39:34.120Z,1.15
2018-02-20T01:40:33.414Z,1.18
2018-02-20T01:41:33.484Z,1.24
2018-02-20T01:42:33.399Z,1.24
2018-02-20T01:43:33.391Z,1.27
2018-02-20T01:44:33.399Z,1.24
2018-02-20T01:45:33.393Z,1.32
2018-02-20T01:46:33.395Z,1.26
2018-02-20T01:47:33.390Z,1.26
2018-02-20T01:48:33.378Z,1.18
2018-02-20T01:49:33.377Z,1.26
2018-02-20T01:50:33.376Z,1.15
2018-02-20T01:51:33.374Z,1.20
2018-02-20T01:52:33.360Z,1.16
2018-02-20T01:53:33.363Z,1.26
2018-02-20T01:54:33.410Z,1.23
2018-02-20T01:55:33.363Z,1.27
2018-02-20T01:56:33.378Z,1.27
2018-02-20T01:57:33.353Z,1.24
2018-02-20T01:58:33.348Z,1.27
2018-02-20T01:59:33.348Z,1.23
2018-02-20T02:00:33.348Z,1.14
2018-02-20T02:01:33.330Z,1.11
2018-02-20T02:02:33.341Z,1.12
2018-02-20T02:03:33.335Z,1.24
2018-02-20T02:04:33.331Z,1.15
2018-02-20T02:05:33.330Z,1.18
2018-02-20T02:06:33.319Z,1.12
2018-02-20T02:07:33.319Z,1.02
2018-02-20T02:08:33.322Z,1.00
2018-02-20T02:09:33.322Z,1.04
2018-02-20T02:10:33.317Z,1.05
2018-02-20T02:11:33.310Z,1.04
2018-02-20T02:12:33.332Z,1.02
2018-02-20T02:13:33.298Z,1.02
2018-02-20T02:14:33.298Z,0.90
2018-02-20T02:15:33.293Z,0.90
2018-02-20T02:16:33.310Z,0.80
2018-02-20T02:17:33.302Z,0.83
2018-02-20T02:18:33.288Z,0.70
2018-02-20T02:19:33.290Z,0.61
2018-02-20T02:20:33.283Z,0.62
2018-02-20T02:21:33.283Z,0.55
2018-02-20T02:22:33.268Z,0.58
2018-02-20T02:23:33.270Z,0.47
2018-02-20T02:24:33.269Z,0.51
2018-02-20T02:25:33.258Z,0.46
2018-02-20T02:26:33.281Z,0.49
2018-02-20T02:27:33.261Z,0.47
2018-02-20T02:28:33.280Z,0.38
2018-02-20T02:29:33.250Z,0.38
2018-02-20T02:30:33.253Z,0.36
2018-02-20T02:31:33.249Z,0.44
2018-02-20T02:32:33.250Z,0.38
2018-02-20T02:33:33.239Z,0.49
2018-02-20T02:34:33.235Z,0.38
2018-02-20T02:35:33.231Z,0.46
2018-02-20T02:36:33.225Z,0.47
2018-02-20T02:37:33.229Z,0.53
2018-02-20T02:38:33.223Z,0.49
2018-02-20T02:39:33.218Z,0.47
2018-02-20T02:40:33.226Z,0.53
2018-02-20T02:41:33.228Z,0.51
2018-02-20T02:42:33.208Z,0.53
2018-02-20T02:43:33.211Z,0.50
2018-02-20T02:44:33.208Z,0.55
2018-02-20T02:45:33.246Z,0.60
2018-02-20T02:46:33.192Z,0.62
2018-02-20T02:47:33.205Z,0.57
2018-02-20T02:48:33.193Z,0.46
2018-02-20T02:49:33.186Z,0.47
2018-02-20T02:50:33.185Z,0.51
2018-02-20T02:51:33.188Z,0.55
2018-02-20T02:52:33.182Z,0.57
2018-02-20T02:53:33.165Z,0.53
2018-02-20T02:54:33.166Z,0.51
2018-02-20T02:55:33.160Z,0.49
2018-02-20T02:56:33.168Z,0.55
2018-02-20T02:57:33.171Z,0.51
2018-02-20T02:58:33.157Z,0.61
2018-02-20T02:59:33.162Z,0.65
2018-02-20T03:00:33.158Z,0.61
2018-02-20T03:01:33.160Z,0.62
2018-02-20T03:02:33.624Z,0.72
2018-02-20T03:03:33.145Z,0.78
2018-02-20T03:04:33.144Z,0.66
2018-02-20T03:05:33.141Z,0.76
2018-02-20T03:06:33.138Z,0.58
2018-02-20T03:07:33.122Z,0.70
2018-02-20T03:08:33.128Z,0.73
2018-02-20T03:09:33.127Z,0.73
2018-02-20T03:10:33.117Z,0.76
2018-02-20T03:11:33.115Z,0.78
2018-02-20T03:12:33.126Z,0.84
2018-02-20T03:13:33.124Z,0.80
2018-02-20T03:14:33.100Z,0.90
2018-02-20T03:15:33.180Z,0.88
2018-02-20T03:16:33.109Z,0.79
2018-02-20T03:17:33.097Z,0.87
2018-02-20T03:18:33.088Z,0.76
2018-02-20T03:19:33.092Z,0.88
2018-02-20T03:20:33.089Z,0.90
2018-02-20T03:21:33.081Z,0.88
2018-02-20T03:22:33.078Z,0.91
2018-02-20T03:23:33.070Z,0.87
2018-02-20T03:24:33.076Z,0.78
2018-02-20T03:25:33.056Z,0.79
2018-02-20T03:26:33.063Z,0.87
2018-02-20T03:27:33.066Z,0.86
2018-02-20T03:28:33.070Z,0.78
2018-02-20T03:29:33.051Z,0.79
2018-02-20T03:30:33.054Z,0.78
2018-02-20T03:31:33.049Z,0.70
2018-02-20T03:32:33.046Z,0.72
2018-02-20T03:33:33.062Z,0.70
2018-02-20T03:34:33.031Z,0.76
2018-02-20T03:35:33.039Z,0.72
2018-02-20T03:36:33.034Z,0.65
2018-02-20T03:37:33.023Z,0.65
2018-02-20T03:38:33.023Z,0.72
2018-02-20T03:39:33.021Z,0.72
2018-02-20T03:40:33.014Z,0.61
2018-02-20T03:41:33.015Z,0.73
2018-02-20T03:42:33.009Z,0.76
2018-02-20T03:43:33.024Z,0.83
2018-02-20T03:44:33.008Z,0.70
2018-02-20T03:45:33.014Z,0.65
2018-02-20T03:46:33.632Z,0.76
2018-02-20T03:47:32.989Z,0.68
2018-02-20T03:48:32.989Z,0.66
2018-02-20T03:49:32.993Z,0.65
2018-02-20T03:50:32.993Z,0.73
2018-02-20T03:51:32.981Z,0.55
2018-02-20T03:52:32.976Z,0.55
2018-02-20T03:53:32.984Z,0.49
2018-02-20T03:54:32.961Z,0.46
2018-02-20T03:55:32.971Z,0.46
2018-02-20T03:56:32.957Z,0.47
2018-02-20T03:57:32.947Z,0.50
2018-02-20T03:58:32.948Z,0.38
2018-02-20T03:59:32.954Z,0.39
2018-02-20T04:00:32.945Z,0.41
2018-02-20T04:01:32.944Z,0.49
2018-02-20T04:02:32.941Z,0.50
2018-02-20T04:03:32.937Z,0.50
2018-02-20T04:04:32.935Z,0.49
2018-02-20T04:05:32.930Z,0.57
2018-02-20T04:06:32.928Z,0.50
2018-02-20T04:07:32.920Z,0.58
2018-02-20T04:08:32.916Z,0.55
2018-02-20T04:09:32.919Z,0.55
2018-02-20T04:10:32.907Z,0.51
2018-02-20T04:11:32.910Z,0.47
2018-02-20T04:12:32.937Z,0.46
2018-02-20T04:13:32.907Z,0.47
2018-02-20T04:14:32.905Z,0.50
2018-02-20T04:15:32.890Z,0.58
2018-02-20T04:16:32.900Z,0.50
2018-02-20T04:17:32.890Z,0.55
2018-02-20T04:18:32.896Z,0.49
2018-02-20T04:19:32.887Z,0.51
2018-02-20T04:20:32.880Z,0.49
2018-02-20T04:21:32.876Z,0.55
2018-02-20T04:22:32.870Z,0.55
2018-02-20T04:23:32.865Z,0.53
2018-02-20T04:24:32.865Z,0.46
2018-02-20T04:25:32.862Z,0.55
2018-02-20T04:26:32.854Z,0.55
2018-02-20T04:27:32.852Z,0.55
2018-02-20T04:28:32.842Z,0.46
2018-02-20T04:29:32.856Z,0.55
2018-02-20T04:30:32.839Z,0.49
2018-02-20T04:31:32.839Z,0.49
2018-02-20T04:32:32.826Z,0.49
2018-02-20T04:33:32.825Z,0.44
2018-02-20T04:34:32.829Z,0.41
2018-02-20T04:35:32.829Z,0.38
2018-02-20T04:36:32.830Z,0.42
2018-02-20T04:37:32.833Z,0.31
2018-02-20T04:38:32.817Z,0.39
2018-02-20T04:39:32.813Z,0.44
2018-02-20T04:40:32.818Z,0.26
2018-02-20T04:41:32.803Z,0.26
2018-02-20T04:42:32.800Z,0.28
2018-02-20T04:43:32.799Z,0.24
2018-02-20T04:44:32.794Z,0.23
2018-02-20T04:45:32.788Z,0.26
2018-02-20T04:46:32.790Z,0.21
2018-02-20T04:47:32.783Z,0.28
2018-02-20T04:48:32.780Z,0.29
2018-02-20T04:49:32.836Z,0.23
2018-02-20T04:50:32.766Z,0.26
2018-02-20T04:51:32.765Z,0.20
2018-02-20T04:52:32.760Z,0.24
2018-02-20T04:53:32.764Z,0.18
2018-02-20T04:54:32.762Z,0.04
2018-02-20T04:55:32.745Z,0.02
2018-02-20T04:56:32.752Z,0.02
2018-02-20T04:57:32.746Z,-0.05
2018-02-20T04:58:32.740Z,-0.16
2018-02-20T04:59:32.746Z,-0.16
2018-02-20T05:00:32.754Z,-0.18
2018-02-20T05:01:32.736Z,-0.11
2018-02-20T05:02:32.846Z,-0.10
2018-02-20T05:03:32.734Z,-0.05
2018-02-20T05:04:32.731Z,-0.16
2018-02-20T05:05:32.724Z,-0.22
2018-02-20T05:06:32.721Z,-0.25
2018-02-20T05:07:32.719Z,-0.25
2018-02-20T05:08:32.716Z,-0.26
2018-02-20T05:09:32.711Z,-0.23
2018-02-20T05:10:32.715Z,-0.18
2018-02-20T05:11:32.697Z,-0.22
2018-02-20T05:12:32.699Z,-0.28
2018-02-20T05:13:32.695Z,-0.31
2018-02-20T05:14:32.685Z,-0.36
2018-02-20T05:15:33.640Z,-0.28
2018-02-20T05:16:32.682Z,-0.29
2018-02-20T05:17:32.682Z,-0.19
2018-02-20T05:18:32.666Z,-0.23
2018-02-20T05:19:32.674Z,-0.22
2018-02-20T05:20:32.657Z,-0.21
2018-02-20T05:21:32.663Z,-0.25
2018-02-20T05:22:32.657Z,-0.29
2018-02-20T05:23:32.681Z,-0.26
2018-02-20T05:24:32.652Z,-0.29
2018-02-20T05:25:32.656Z,-0.26
2018-02-20T05:26:32.644Z,-0.28
2018-02-20T05:27:32.645Z,-0.26
2018-02-20T05:28:32.630Z,-0.22
2018-02-20T05:29:32.647Z,-0.21
2018-02-20T05:30:32.679Z,-0.23
2018-02-20T05:31:32.624Z,-0.26
2018-02-20T05:32:32.625Z,-0.22
2018-02-20T05:33:32.628Z,-0.23
2018-02-20T05:34:32.614Z,-0.23
2018-02-20T05:35:32.616Z,-0.21
2018-02-20T05:36:32.693Z,-0.15
2018-02-20T05:37:32.603Z,-0.21
2018-02-20T05:38:32.610Z,-0.16
2018-02-20T05:39:32.612Z,-0.10
2018-02-20T05:40:32.614Z,-0.07
2018-02-20T05:41:32.603Z,-0.05
2018-02-20T05:42:32.589Z,-0.01
2018-02-20T05:43:32.585Z,0.10
2018-02-20T05:44:32.582Z,0.10
2018-02-20T05:45:32.570Z,0.04
2018-02-20T05:46:32.568Z,0.10
2018-02-20T05:47:32.579Z,0.03
2018-02-20T05:48:32.573Z,0.07
2018-02-20T05:49:33.144Z,0.18
2018-02-20T05:50:32.561Z,0.21
2018-02-20T05:51:32.556Z,0.20
2018-02-20T05:52:32.553Z,0.20
2018-02-20T05:53:32.554Z,0.14
2018-02-20T05:54:32.542Z,0.11
2018-02-20T05:55:32.550Z,0.17
2018-02-20T05:56:32.530Z,-0.05
2018-02-20T05:57:32.534Z,-0.11
2018-02-20T05:58:32.527Z,-0.11
2018-02-20T05:59:32.532Z,-0.18
2018-02-20T06:00:32.529Z,-0.14
2018-02-20T06:01:32.510Z,-0.10
2018-02-20T06:02:32.512Z,-0.08
2018-02-20T06:03:32.523Z,-0.01
2018-02-20T06:04:32.505Z,-0.14
2018-02-20T06:05:32.583Z,-0.19
2018-02-20T06:06:32.510Z,-0.11
2018-02-20T06:07:32.506Z,-0.18
2018-02-20T06:08:32.505Z,-0.16
2018-02-20T06:09:32.542Z,-0.18
2018-02-20T06:10:32.571Z,-0.11
2018-02-20T06:11:32.490Z,-0.05
2018-02-20T06:12:32.475Z,-0.18
2018-02-20T06:13:32.477Z,-0.10
2018-02-20T06:14:32.482Z,-0.05
2018-02-20T06:15:32.468Z,-0.16
2018-02-20T06:16:32.470Z,-0.16
2018-02-20T06:17:32.454Z,-0.25
2018-02-20T06:18:32.470Z,-0.28
2018-02-20T06:19:32.457Z,-0.14
2018-02-20T06:20:32.464Z,-0.25
2018-02-20T06:21:32.463Z,-0.25
2018-02-20T06:22:32.444Z,-0.21
2018-02-20T06:23:32.434Z,-0.28
2018-02-20T06:24:32.451Z,-0.29
2018-02-20T06:25:32.429Z,-0.33
2018-02-20T06:26:32.422Z,-0.25
2018-02-20T06:27:32.435Z,-0.40
2018-02-20T06:28:32.421Z,-0.52
2018-02-20T06:29:32.423Z,-0.39
2018-02-20T06:30:32.405Z,-0.37
2018-02-20T06:31:32.410Z,-0.36
2018-02-20T06:32:32.416Z,-0.36
2018-02-20T06:33:32.408Z,-0.26
2018-02-20T06:34:32.388Z,-0.26
2018-02-20T06:35:32.389Z,-0.19
2018-02-20T06:36:32.503Z,-0.14
2018-02-20T06:37:32.395Z,-0.14
2018-02-20T06:38:32.392Z,-0.15
2018-02-20T06:39:32.410Z,-0.19
2018-02-20T06:40:32.378Z,-0.15
2018-02-20T06:41:32.373Z,-0.15
2018-02-20T06:42:32.373Z,-0.10
2018-02-20T06:43:32.377Z,-0.07
2018-02-20T06:44:32.361Z,-0.05
2018-02-20T06:45:32.365Z,0.03
2018-02-20T06:46:32.372Z,-0.01
2018-02-20T06:47:32.355Z,0.03
2018-02-20T06:48:32.361Z,0.11
2018-02-20T06:49:32.341Z,0.11
2018-02-20T06:50:32.351Z,0.17
2018-02-20T06:51:32.330Z,0.15
2018-02-20T06:52:32.352Z,0.15
2018-02-20T06:53:32.335Z,0.15
2018-02-20T06:54:32.325Z,0.24
2018-02-20T06:55:32.329Z,0.31
2018-02-20T06:56:32.378Z,0.26
2018-02-20T06:57:32.313Z,0.21
2018-02-20T06:58:32.309Z,0.23
2018-02-20T06:59:32.312Z,0.24
2018-02-20T07:00:32.308Z,0.31
2018-02-20T07:01:32.301Z,0.39
2018-02-20T07:02:32.303Z,0.33
2018-02-20T07:03:32.306Z,0.42
2018-02-20T07:04:32.305Z,0.50
2018-02-20T07:05:32.288Z,0.58
2018-02-20T07:06:32.295Z,0.62
2018-02-20T07:07:33.149Z,0.65
2018-02-20T07:08:32.273Z,0.68
2018-02-20T07:09:32.275Z,0.70
2018-02-20T07:10:32.259Z,0.76
2018-02-20T07:11:32.261Z,0.87
2018-02-20T07:12:32.259Z,0.90
2018-02-20T07:13:32.265Z,0.93
2018-02-20T07:14:32.245Z,0.94
2018-02-20T07:15:32.270Z,0.96
2018-02-20T07:16:32.244Z,0.90
2018-02-20T07:17:32.312Z,1.00
2018-02-20T07:18:32.244Z,1.04
2018-02-20T07:19:32.239Z,1.04
2018-02-20T07:20:32.231Z,1.18
2018-02-20T07:21:32.219Z,1.16
2018-02-20T07:22:32.228Z,1.20
2018-02-20T07:23:32.343Z,1.24
2018-02-20T07:24:32.249Z,1.30
2018-02-20T07:25:32.257Z,1.32
2018-02-20T07:26:32.244Z,1.30
2018-02-20T07:27:32.213Z,1.40
2018-02-20T07:28:32.211Z,1.30
2018-02-20T07:29:32.211Z,1.40
2018-02-20T07:30:32.220Z,1.40
2018-02-20T07:31:32.217Z,1.44
2018-02-20T07:32:32.204Z,1.62
2018-02-20T07:33:32.190Z,1.59
2018-02-20T07:34:32.242Z,1.69
2018-02-20T07:35:32.207Z,1.60
2018-02-20T07:36:32.183Z,1.72
2018-02-20T07:37:32.180Z,1.88
2018-02-20T07:38:32.188Z,2.28
2018-02-20T07:39:33.176Z,2.95
2018-02-20T07:40:32.183Z,3.54
2018-02-20T07:41:32.160Z,3.58
2018-02-20T07:42:32.157Z,3.68
2018-02-20T07:43:32.179Z,4.08
2018-02-20T07:44:32.156Z,4.52
2018-02-20T07:45:32.165Z,4.75
2018-02-20T07:46:32.144Z,5.24
2018-02-20T07:47:32.155Z,4.94
2018-02-20T07:48:32.154Z,5.25
2018-02-20T07:49:32.141Z,5.27
2018-02-20T07:50:32.149Z,5.67
2018-02-20T07:51:32.157Z,5.83
2018-02-20T07:52:32.131Z,6.46
2018-02-20T07:53:32.131Z,6.73
2018-02-20T07:54:32.657Z,7.42
2018-02-20T07:55:32.143Z,7.35
2018-02-20T07:56:32.140Z,7.67
2018-02-20T07:57:32.161Z,7.79
2018-02-20T07:58:32.124Z,7.95
2018-02-20T07:59:32.150Z,7.79
2018-02-20T08:00:32.173Z,8.18
2018-02-20T08:01:32.125Z,8.22
2018-02-20T08:02:32.123Z,8.38
2018-02-20T08:03:32.118Z,8.70
2018-02-20T08:04:32.112Z,9.35
2018-02-20T08:05:32.174Z,9.72
2018-02-20T08:06:32.118Z,10.02
2018-02-20T08:07:32.185Z,10.14
2018-02-20T08:08:32.114Z,9.69
2018-02-20T08:09:32.117Z,9.01
2018-02-20T08:10:32.152Z,9.17
2018-02-20T08:11:32.116Z,9.32
2018-02-20T08:12:32.130Z,9.50
2018-02-20T08:13:32.124Z,9.74
2018-02-20T08:14:32.128Z,9.90
2018-02-20T08:15:32.123Z,9.54
2018-02-20T08:16:32.132Z,9.43
2018-02-20T08:17:32.123Z,9.50
2018-02-20T08:18:32.136Z,9.10
2018-02-20T08:19:32.117Z,8.59
2018-02-20T08:20:32.258Z,8.41
2018-02-20T08:21:32.130Z,9.08
2018-02-20T08:22:32.131Z,8.29
2018-02-20T08:23:32.141Z,9.11
2018-02-20T08:24:32.139Z,9.79
2018-02-20T08:25:32.194Z,9.76
2018-02-20T08:26:32.141Z,10.11
2018-02-20T08:27:32.140Z,10.11
2018-02-20T08:28:32.166Z,9.76
2018-02-20T08:29:32.148Z,9.10
2018-02-20T08:30:32.161Z,9.35
2018-02-20T08:31:32.186Z,9.94
2018-02-20T08:32:32.167Z,10.59
2018-02-20T08:33:33.166Z,9.56
2018-02-20T08:34:32.178Z,9.91
2018-02-20T08:35:32.159Z,10.17
2018-02-20T08:36:33.167Z,10.63
2018-02-20T08:37:32.180Z,9.23
2018-02-20T08:38:32.167Z,9.69
2018-02-20T08:39:32.176Z,9.35
2018-02-20T08:40:32.199Z,9.50
2018-02-20T08:41:32.194Z,9.04
2018-02-20T08:42:32.722Z,9.18
2018-02-20T08:43:32.182Z,8.92
2018-02-20T08:44:32.191Z,9.69
2018-02-20T08:45:32.190Z,10.32
2018-02-20T08:46:32.197Z,10.25
2018-02-20T08:47:32.197Z,10.76
2018-02-20T08:48:32.218Z,10.79
2018-02-20T08:49:32.207Z,11.04
2018-02-20T08:50:32.200Z,11.57
2018-02-20T08:51:33.177Z,10.81
2018-02-20T08:52:32.220Z,11.39
2018-02-20T08:53:32.219Z,11.02
2018-02-20T08:54:32.266Z,9.50
2018-02-20T08:55:32.252Z,10.15
2018-02-20T08:56:32.241Z,10.04
2018-02-20T08:57:32.224Z,9.94
2018-02-20T08:58:33.178Z,10.25
2018-02-20T08:59:32.244Z,10.30
2018-02-20T09:00:32.264Z,10.29
2018-02-20T09:01:32.342Z,9.65
2018-02-20T09:02:32.278Z,9.38
2018-02-20T09:03:32.256Z,9.76
2018-02-20T09:04:32.259Z,9.36
2018-02-20T09:05:32.271Z,9.51
2018-02-20T09:06:33.440Z,10.01
2018-02-20T09:07:32.334Z,10.22
2018-02-20T09:08:32.347Z,10.29
2018-02-20T09:09:32.335Z,9.57
2018-02-20T09:10:32.493Z,9.53
2018-02-20T09:11:32.288Z,10.12
2018-02-20T09:12:32.372Z,10.53
2018-02-20T09:13:32.418Z,10.88
2018-02-20T09:14:32.334Z,11.32
2018-02-20T09:15:32.390Z,11.10
2018-02-20T09:16:32.321Z,10.85
2018-02-20T09:17:32.408Z,11.04
2018-02-20T09:18:32.316Z,10.48
2018-02-20T09:19:32.312Z,10.71
2018-02-20T09:20:32.311Z,10.96
2018-02-20T09:21:32.421Z,11.04
2018-02-20T09:22:32.317Z,11.28
2018-02-20T09:23:32.837Z,11.43
2018-02-20T09:24:33.268Z,10.82
2018-02-20T09:25:32.923Z,9.26
2018-02-20T09:26:32.370Z,8.94
2018-02-20T09:27:33.189Z,8.77
2018-02-20T09:28:32.339Z,9.78
2018-02-20T09:29:32.349Z,10.85
2018-02-20T09:30:32.376Z,10.34
2018-02-20T09:31:32.347Z,11.10
2018-02-20T09:32:32.354Z,11.18
2018-02-20T09:33:32.359Z,11.51
2018-02-20T09:34:32.374Z,12.01
2018-02-20T09:35:32.381Z,11.70
2018-02-20T09:36:32.368Z,11.83
2018-02-20T09:37:32.375Z,11.27
2018-02-20T09:38:32.379Z,10.81
2018-02-20T09:39:32.395Z,11.04
2018-02-20T09:40:32.388Z,10.56
2018-02-20T09:41:32.410Z,11.29
2018-02-20T09:42:32.403Z,12.04
2018-02-20T09:43:32.414Z,11.22
2018-02-20T09:44:33.213Z,11.61
2018-02-20T09:45:32.478Z,11.44
2018-02-20T09:46:32.419Z,10.25
2018-02-20T09:47:32.411Z,10.05
2018-02-20T09:48:32.417Z,10.81
2018-02-20T09:49:32.460Z,11.14
2018-02-20T09:50:32.435Z,11.96
2018-02-20T09:51:32.452Z,11.95
2018-02-20T09:52:32.467Z,11.67
2018-02-20T09:53:32.456Z,10.84
2018-02-20T09:54:32.467Z,11.29
2018-02-20T09:55:32.465Z,11.22
2018-02-20T09:56:32.471Z,10.81
2018-02-20T09:57:32.472Z,10.48
2018-02-20T09:58:32.602Z,11.21
2018-02-20T09:59:32.481Z,11.47
2018-02-20T10:00:32.498Z,11.15
2018-02-20T10:01:32.502Z,11.64
2018-02-20T10:02:32.508Z,11.91
2018-02-20T10:03:32.525Z,11.85
2018-02-20T10:04:32.507Z,11.17
2018-02-20T10:05:32.518Z,11.18
2018-02-20T10:06:32.514Z,11.67
2018-02-20T10:07:32.531Z,11.52
2018-02-20T10:08:32.691Z,11.55
2018-02-20T10:09:32.543Z,10.66
2018-02-20T10:10:32.536Z,10.76
2018-02-20T10:11:32.564Z,10.61
2018-02-20T10:12:32.553Z,9.58
2018-02-20T10:13:32.572Z,10.38
2018-02-20T10:14:32.571Z,10.34
2018-02-20T10:15:32.568Z,9.65
2018-02-20T10:16:32.616Z,9.31
2018-02-20T10:17:32.582Z,9.04
2018-02-20T10:18:32.613Z,9.58
2018-02-20T10:19:32.600Z,10.01
2018-02-20T10:20:32.603Z,10.76
2018-02-20T10:21:32.615Z,9.86
2018-02-20T10:22:32.815Z,10.05
2018-02-20T10:23:32.629Z,10.60
2018-02-20T10:24:32.637Z,10.97
2018-02-20T10:25:32.642Z,11.11
2018-02-20T10:26:32.634Z,11.37
2018-02-20T10:27:32.647Z,11.36
2018-02-20T10:28:32.644Z,11.29
2018-02-20T10:29:32.787Z,11.67
2018-02-20T10:30:32.661Z,12.01
2018-02-20T10:31:32.668Z,11.18
2018-02-20T10:32:32.659Z,10.82
2018-02-20T10:33:33.222Z,10.60
2018-02-20T10:34:32.691Z,10.02
2018-02-20T10:35:32.684Z,10.32
2018-02-20T10:36:32.728Z,10.56
2018-02-20T10:37:32.727Z,10.44
2018-02-20T10:38:32.931Z,10.07
2018-02-20T10:39:32.767Z,10.12
2018-02-20T10:40:32.789Z,9.60
2018-02-20T10:41:32.741Z,9.78
2018-02-20T10:42:32.745Z,9.51
2018-02-20T10:43:33.224Z,10.04
2018-02-20T10:44:32.717Z,10.20
2018-02-20T10:45:32.736Z,9.35
2018-02-20T10:46:32.758Z,10.44
2018-02-20T10:47:32.750Z,9.60
2018-02-20T10:48:32.766Z,9.64
2018-02-20T10:49:32.755Z,9.79
2018-02-20T10:50:32.758Z,9.60
2018-02-20T10:51:32.764Z,8.80
2018-02-20T10:52:33.727Z,8.47
2018-02-20T10:53:32.780Z,8.10
2018-02-20T10:54:32.778Z,8.29
2018-02-20T10:55:32.791Z,8.05
2018-02-20T10:56:32.800Z,7.48
2018-02-20T10:57:32.819Z,7.45
2018-02-20T10:58:32.814Z,7.53
2018-02-20T10:59:32.835Z,7.55
2018-02-20T11:00:32.906Z,7.61
2018-02-20T11:01:32.815Z,7.83
2018-02-20T11:02:32.818Z,7.90
2018-02-20T11:03:32.823Z,7.48
2018-02-20T11:04:32.817Z,7.83
2018-02-20T11:05:32.851Z,7.85
2018-02-20T11:06:32.931Z,8.28
2018-02-20T11:07:32.869Z,8.43
2018-02-20T11:08:32.852Z,8.40
2018-02-20T11:09:32.862Z,8.04
2018-02-20T11:10:33.751Z,7.74
2018-02-20T11:11:32.857Z,7.83
2018-02-20T11:12:32.847Z,7.80
2018-02-20T11:13:32.867Z,8.07
2018-02-20T11:14:32.861Z,8.55
2018-02-20T11:15:32.883Z,8.87
2018-02-20T11:16:32.861Z,8.76
2018-02-20T11:17:32.950Z,8.70
2018-02-20T11:18:32.895Z,9.32
2018-02-20T11:19:32.869Z,9.64
2018-02-20T11:20:32.888Z,10.15
2018-02-20T11:21:32.998Z,10.51
2018-02-20T11:22:32.886Z,10.41
2018-02-20T11:23:33.011Z,9.74
2018-02-20T11:24:32.915Z,9.60
2018-02-20T11:25:33.742Z,9.74
2018-02-20T11:26:33.031Z,9.90
2018-02-20T11:27:32.962Z,9.91
2018-02-20T11:28:32.912Z,9.56
2018-02-20T11:29:32.931Z,9.31
2018-02-20T11:30:33.744Z,9.54
2018-02-20T11:31:32.928Z,9.74
2018-02-20T11:32:32.954Z,9.64
2018-02-20T11:33:32.937Z,9.58
2018-02-20T11:34:32.924Z,9.57
2018-02-20T11:35:32.929Z,9.21
2018-02-20T11:36:33.062Z,8.99
2018-02-20T11:37:32.961Z,8.12
2018-02-20T11:38:32.972Z,8.44
2018-02-20T11:39:32.969Z,8.77
2018-02-20T11:40:32.956Z,8.61
2018-02-20T11:41:32.965Z,7.71
2018-02-20T11:42:32.958Z,7.61
2018-02-20T11:43:32.959Z,7.95
2018-02-20T11:44:32.976Z,8.30
2018-02-20T11:45:32.964Z,8.44
2018-02-20T11:46:33.095Z,8.34
2018-02-20T11:47:32.972Z,8.61
2018-02-20T11:48:32.989Z,8.89
2018-02-20T11:49:32.980Z,8.76
2018-02-20T11:50:32.994Z,8.89
2018-02-20T11:51:33.052Z,8.68
2018-02-20T11:52:32.999Z,8.81
2018-02-20T11:53:33.001Z,8.77
2018-02-20T11:54:33.044Z,8.95
2018-02-20T11:55:33.003Z,8.83
2018-02-20T11:56:32.996Z,8.96
2018-02-20T11:57:33.014Z,8.94
2018-02-20T11:58:33.022Z,8.94
2018-02-20T11:59:33.007Z,8.71
2018-02-20T12:00:33.020Z,8.87
2018-02-20T12:01:33.018Z,8.99
2018-02-20T12:02:33.034Z,9.02
2018-02-20T12:03:33.046Z,8.99
2018-02-20T12:04:33.172Z,8.92
2018-02-20T12:05:33.035Z,9.20
2018-02-20T12:06:33.044Z,9.02
2018-02-20T12:07:33.050Z,9.20
2018-02-20T12:08:33.066Z,9.31
2018-02-20T12:09:33.047Z,9.36
2018-02-20T12:10:33.052Z,9.38
2018-02-20T12:11:33.059Z,9.18
2018-02-20T12:12:33.060Z,9.15
2018-02-20T12:13:33.064Z,8.80
2018-02-20T12:14:33.073Z,8.99
2018-02-20T12:15:33.073Z,8.83
2018-02-20T12:16:33.081Z,8.52
2018-02-20T12:17:33.227Z,8.04
2018-02-20T12:18:33.077Z,7.98
2018-02-20T12:19:33.094Z,8.29
2018-02-20T12:20:33.163Z,8.28
2018-02-20T12:21:33.084Z,8.36
2018-02-20T12:22:33.087Z,8.45
2018-02-20T12:23:33.092Z,8.43
2018-02-20T12:24:33.085Z,8.30
2018-02-20T12:25:33.086Z,7.93
2018-02-20T12:26:33.088Z,7.93
2018-02-20T12:27:33.085Z,7.87
2018-02-20T12:28:33.097Z,7.82
2018-02-20T12:29:33.106Z,7.87
2018-02-20T12:32:10.793Z,8.04
